Terminal Aerodrome Forecast
Issued by NWS Tampa Bay Area, FL

Home | Current Version | Previous Version | Text Only | Print | Product List | Glossary On
Versions: 1 2 3 4 5 6 7 8 9 10 11 12 13 14 15 16 17
000
FTUS42 KTBW 031722
TAFFMY
TAF
KFMY 031722Z 0318/0418 VRB04KT P6SM SCT035 SCT250
     FM031900 29008KT P6SM VCTS SCT040CB SCT250
     FM040000 32005KT P6SM SCT050 BKN250
     FM040500 VRB03KT P6SM FEW030 SCT250
     FM041600 32006KT P6SM VCTS SCT030CB SCT250=

USA.gov is the U.S. government's official web portal to all federal, state and local government web resources and services.